Check out our new PWSWeather beta!
PWSweather.com
Personal Weather Stations
Station Observations
ISARDEGN48
BittiIT 08021

BittiIT 08021

Lat: 40.4805, Lon: 9.3887

Elevation: 1804

Station Type: La Crosse WS2355

http://meteobitti.altervista.org

Latest ConditionsUpdated 7:40:01 PM GMT+01:01 Monday, Feb 24, 2020
Currently Today's Max Today's Min Today's Average
Temperature 53.8°F12.1°C 66.2°F19.0°C 44.8°F7.1°C 55.5°F13.1°C
Dew Point 33.3°F0.7°C 47.7°F8.7°C 33.0°F0.6°C 39.0°F3.9°C
Winds 1.3 mph SW2.1 kmh SW 34.7 mph -55.8 kmh - - 11.2 mph 18.0 kmh
Wind Gusts 4.5 mph7.2 kmh 43.4 mph69.8 kmh - -
Humidity 46% 82% 35% 55%
Pressure 29.99 in1015.6 mb 30.14 in1020.7 mb 29.97 in1014.9 mb -
Hour Temp Dew Point Humidity Winds Wind Gusts Pressure Precip Precip Rate Daily Precip Total
07:40 PM 53.8°F12.1°C 33.3°F0.7°C 46% 1.3 mph SW2.1 kmh SW 4.5 mph7.2 kmh 29.99 in1015.6 mb 0.00 in0.0 mm 0.00 in0.0 mm 0.00 in0.0 mm
07:35 PM 54.0°F12.2°C 33.0°F0.6°C 45% 1.6 mph SSW2.6 kmh SSW 4.5 mph7.2 kmh 29.99 in1015.6 mb 0.00 in0.0 mm 0.00 in0.0 mm 0.00 in0.0 mm
07:30 PM 53.8°F12.1°C 33.3°F0.7°C 46% 0.9 mph SSW1.4 kmh SSW 3.6 mph5.8 kmh 29.99 in1015.6 mb 0.00 in0.0 mm 0.00 in0.0 mm 0.00 in0.0 mm
07:25 PM 53.8°F12.1°C 33.3°F0.7°C 46% 2.2 mph SW3.5 kmh SW 3.6 mph5.8 kmh 29.99 in1015.6 mb 0.00 in0.0 mm 0.00 in0.0 mm 0.00 in0.0 mm
07:20 PM 54.1°F12.3°C 33.1°F0.6°C 45% Calm Calm 2.9 mph4.7 kmh 29.99 in1015.6 mb 0.00 in0.0 mm 0.00 in0.0 mm 0.00 in0.0 mm
07:15 PM 54.7°F12.6°C 33.6°F0.9°C 45% 1.8 mph SE2.9 kmh SE 2.2 mph3.5 kmh 29.99 in1015.6 mb 0.00 in0.0 mm 0.00 in0.0 mm 0.00 in0.0 mm
07:10 PM 55.2°F12.9°C 33.5°F0.8°C 44% Calm Calm 2.0 mph3.2 kmh 29.99 in1015.6 mb 0.00 in0.0 mm 0.00 in0.0 mm 0.00 in0.0 mm
07:05 PM 55.6°F13.1°C 33.3°F0.7°C 43% Calm Calm 6.7 mph10.8 kmh 29.99 in1015.6 mb 0.00 in0.0 mm 0.00 in0.0 mm 0.00 in0.0 mm
07:00 PM 56.1°F13.4°C 33.8°F1.0°C 43% Calm Calm 7.4 mph11.9 kmh 29.98 in1015.2 mb 0.00 in0.0 mm 0.00 in0.0 mm 0.00 in0.0 mm
06:55 PM 56.1°F13.4°C 33.2°F0.7°C 42% 4.5 mph E7.2 kmh E 7.4 mph11.9 kmh 29.98 in1015.2 mb 0.00 in0.0 mm 0.00 in0.0 mm 0.00 in0.0 mm
06:50 PM 56.5°F13.6°C 33.6°F0.9°C 42% 3.8 mph S6.1 kmh S 3.8 mph6.1 kmh 29.98 in1015.2 mb 0.00 in0.0 mm 0.00 in0.0 mm 0.00 in0.0 mm
06:45 PM 56.8°F13.8°C 33.9°F1.1°C 42% 2.0 mph SW3.2 kmh SW 2.5 mph4.0 kmh 29.98 in1015.2 mb 0.00 in0.0 mm 0.00 in0.0 mm 0.00 in0.0 mm
06:40 PM 57.4°F14.1°C 34.4°F1.3°C 42% 1.6 mph S2.6 kmh S 4.5 mph7.2 kmh 29.98 in1015.2 mb 0.00 in0.0 mm 0.00 in0.0 mm 0.00 in0.0 mm
06:35 PM 57.7°F14.3°C 34.1°F1.2°C 41% 0.9 mph SSE1.4 kmh SSE 4.5 mph7.2 kmh 29.98 in1015.2 mb 0.00 in0.0 mm 0.00 in0.0 mm 0.00 in0.0 mm
06:30 PM 57.9°F14.4°C 34.3°F1.3°C 41% 2.0 mph E3.2 kmh E 5.6 mph9.0 kmh 29.98 in1015.2 mb 0.00 in0.0 mm 0.00 in0.0 mm 0.00 in0.0 mm
06:25 PM 58.3°F14.6°C 34.1°F1.2°C 40% Calm Calm 6.3 mph10.1 kmh 29.97 in1014.9 mb 0.00 in0.0 mm 0.00 in0.0 mm 0.00 in0.0 mm
06:20 PM 58.6°F14.8°C 34.4°F1.3°C 40% 3.4 mph ESE5.5 kmh ESE 6.3 mph10.1 kmh 29.97 in1014.9 mb 0.00 in0.0 mm 0.00 in0.0 mm 0.00 in0.0 mm
06:15 PM 58.6°F14.8°C 34.4°F1.3°C 40% 5.1 mph ESE8.2 kmh ESE 6.3 mph10.1 kmh 29.97 in1014.9 mb 0.00 in0.0 mm 0.00 in0.0 mm 0.00 in0.0 mm
06:10 PM 58.8°F14.9°C 35.1°F1.7°C 41% Calm Calm 8.1 mph13.0 kmh 29.97 in1014.9 mb 0.00 in0.0 mm 0.00 in0.0 mm 0.00 in0.0 mm
06:05 PM 59.0°F15.0°C 35.3°F1.8°C 41% 5.6 mph SSE9.0 kmh SSE 8.1 mph13.0 kmh 29.98 in1015.2 mb 0.00 in0.0 mm 0.00 in0.0 mm 0.00 in0.0 mm
06:00 PM 59.4°F15.2°C 35.0°F1.7°C 40% Calm Calm 4.7 mph7.6 kmh 29.98 in1015.2 mb 0.00 in0.0 mm 0.00 in0.0 mm 0.00 in0.0 mm
05:55 PM 59.5°F15.3°C 35.2°F1.8°C 40% Calm Calm 8.5 mph13.7 kmh 29.98 in1015.2 mb 0.00 in0.0 mm 0.00 in0.0 mm 0.00 in0.0 mm
05:50 PM 59.7°F15.4°C 35.3°F1.8°C 40% 4.7 mph SE7.6 kmh SE 8.5 mph13.7 kmh 29.97 in1014.9 mb 0.00 in0.0 mm 0.00 in0.0 mm 0.00 in0.0 mm
05:45 PM 59.9°F15.5°C 35.5°F1.9°C 40% 1.1 mph SE1.8 kmh SE 5.4 mph8.7 kmh 29.97 in1014.9 mb 0.00 in0.0 mm 0.00 in0.0 mm 0.00 in0.0 mm
05:40 PM 60.3°F15.7°C 35.8°F2.1°C 40% 2.2 mph SE3.5 kmh SE 7.4 mph11.9 kmh 29.98 in1015.2 mb 0.00 in0.0 mm 0.00 in0.0 mm 0.00 in0.0 mm
05:35 PM 60.4°F15.8°C 36.0°F2.2°C 40% 1.6 mph SE2.6 kmh SE 7.4 mph11.9 kmh 29.98 in1015.2 mb 0.00 in0.0 mm 0.00 in0.0 mm 0.00 in0.0 mm
05:30 PM 60.8°F16.0°C 36.3°F2.4°C 40% 3.6 mph SE5.8 kmh SE 6.0 mph9.7 kmh 29.97 in1014.9 mb 0.00 in0.0 mm 0.00 in0.0 mm 0.00 in0.0 mm
05:25 PM 61.0°F16.1°C 35.8°F2.1°C 39% 3.1 mph ESE5.0 kmh ESE 10.3 mph16.6 kmh 29.97 in1014.9 mb 0.00 in0.0 mm 0.00 in0.0 mm 0.00 in0.0 mm
05:20 PM 61.3°F16.3°C 36.1°F2.3°C 39% 6.3 mph SE10.1 kmh SE 10.3 mph16.6 kmh 29.98 in1015.2 mb 0.00 in0.0 mm 0.00 in0.0 mm 0.00 in0.0 mm
05:15 PM 61.3°F16.3°C 36.1°F2.3°C 39% 0.9 mph SE1.4 kmh SE 6.9 mph11.1 kmh 29.97 in1014.9 mb 0.00 in0.0 mm 0.00 in0.0 mm 0.00 in0.0 mm
05:10 PM 61.5°F16.4°C 35.5°F1.9°C 38% 3.8 mph SE6.1 kmh SE 6.9 mph11.1 kmh 29.97 in1014.9 mb 0.00 in0.0 mm 0.00 in0.0 mm 0.00 in0.0 mm
05:05 PM 61.9°F16.6°C 36.6°F2.6°C 39% Calm Calm 10.3 mph16.6 kmh 29.97 in1014.9 mb 0.00 in0.0 mm 0.00 in0.0 mm 0.00 in0.0 mm
05:00 PM 62.1°F16.7°C 36.0°F2.2°C 38% 6.3 mph SE10.1 kmh SE 10.3 mph16.6 kmh 29.97 in1014.9 mb 0.00 in0.0 mm 0.00 in0.0 mm 0.00 in0.0 mm
04:55 PM 62.2°F16.8°C 36.2°F2.3°C 38% 2.9 mph SE4.7 kmh SE 7.6 mph12.2 kmh 29.97 in1014.9 mb 0.00 in0.0 mm 0.00 in0.0 mm 0.00 in0.0 mm
04:50 PM 62.4°F16.9°C 35.6°F2.0°C 37% 0.9 mph E1.4 kmh E 9.8 mph15.8 kmh 29.97 in1014.9 mb 0.00 in0.0 mm 0.00 in0.0 mm 0.00 in0.0 mm
04:45 PM 62.8°F17.1°C 35.9°F2.2°C 37% 5.8 mph E9.3 kmh E 9.8 mph15.8 kmh 29.97 in1014.9 mb 0.00 in0.0 mm 0.00 in0.0 mm 0.00 in0.0 mm
04:40 PM 63.1°F17.3°C 36.3°F2.4°C 37% 6.7 mph E10.8 kmh E 15.7 mph25.3 kmh 29.98 in1015.2 mb 0.00 in0.0 mm 0.00 in0.0 mm 0.00 in0.0 mm
04:35 PM 63.3°F17.4°C 35.7°F2.1°C 36% 4.3 mph E6.9 kmh E 15.7 mph25.3 kmh 29.98 in1015.2 mb 0.00 in0.0 mm 0.00 in0.0 mm 0.00 in0.0 mm
04:30 PM 63.7°F17.6°C 36.0°F2.2°C 36% 12.5 mph ENE20.1 kmh ENE 12.5 mph20.1 kmh 29.97 in1014.9 mb 0.00 in0.0 mm 0.00 in0.0 mm 0.00 in0.0 mm
04:25 PM 63.9°F17.7°C 36.2°F2.3°C 36% Calm Calm 15.0 mph24.1 kmh 29.97 in1014.9 mb 0.00 in0.0 mm 0.00 in0.0 mm 0.00 in0.0 mm
04:20 PM 64.0°F17.8°C 35.6°F2.0°C 35% 6.0 mph NE9.7 kmh NE 15.0 mph24.1 kmh 29.97 in1014.9 mb 0.00 in0.0 mm 0.00 in0.0 mm 0.00 in0.0 mm
04:15 PM 64.2°F17.9°C 35.8°F2.1°C 35% 10.5 mph NE16.9 kmh NE 14.3 mph23.0 kmh 29.98 in1015.2 mb 0.00 in0.0 mm 0.00 in0.0 mm 0.00 in0.0 mm
04:10 PM 64.6°F18.1°C 36.1°F2.3°C 35% 10.1 mph NE16.3 kmh NE 17.0 mph27.4 kmh 29.98 in1015.2 mb 0.00 in0.0 mm 0.00 in0.0 mm 0.00 in0.0 mm
04:05 PM 64.8°F18.2°C 36.3°F2.4°C 35% 7.2 mph NE11.6 kmh NE 17.0 mph27.4 kmh 29.98 in1015.2 mb 0.00 in0.0 mm 0.00 in0.0 mm 0.00 in0.0 mm
04:00 PM 65.1°F18.4°C 36.6°F2.6°C 35% 5.8 mph NE9.3 kmh NE 16.8 mph27.0 kmh 29.98 in1015.2 mb 0.00 in0.0 mm 0.00 in0.0 mm 0.00 in0.0 mm
03:55 PM 65.1°F18.4°C 37.3°F2.9°C 36% 1.8 mph NE2.9 kmh NE 16.8 mph27.0 kmh 29.98 in1015.2 mb 0.00 in0.0 mm 0.00 in0.0 mm 0.00 in0.0 mm
03:50 PM 65.3°F18.5°C 36.8°F2.7°C 35% 8.5 mph NE13.7 kmh NE 16.8 mph27.0 kmh 29.99 in1015.6 mb 0.00 in0.0 mm 0.00 in0.0 mm 0.00 in0.0 mm
03:45 PM 65.8°F18.8°C 38.7°F3.7°C 37% 8.1 mph E13.0 kmh E 16.8 mph27.0 kmh 29.99 in1015.6 mb 0.00 in0.0 mm 0.00 in0.0 mm 0.00 in0.0 mm
03:40 PM 66.0°F18.9°C 41.6°F5.3°C 41% Calm Calm 13.0 mph20.9 kmh 29.99 in1015.6 mb 0.00 in0.0 mm 0.00 in0.0 mm 0.00 in0.0 mm
03:35 PM 65.8°F18.8°C 40.1°F4.5°C 40% 3.6 mph ENE5.8 kmh ENE 13.0 mph20.9 kmh 29.99 in1015.6 mb 0.00 in0.0 mm 0.00 in0.0 mm 0.00 in0.0 mm
03:30 PM 66.0°F18.9°C 42.2°F5.7°C 42% 5.1 mph E8.2 kmh E 10.3 mph16.6 kmh 29.99 in1015.6 mb 0.00 in0.0 mm 0.00 in0.0 mm 0.00 in0.0 mm
03:25 PM 66.0°F18.9°C 43.4°F6.3°C 44% 2.2 mph ESE3.5 kmh ESE 11.6 mph18.7 kmh 30.00 in1015.9 mb 0.00 in0.0 mm 0.00 in0.0 mm 0.00 in0.0 mm
03:20 PM 66.0°F18.9°C 43.4°F6.3°C 44% 3.4 mph ESE5.5 kmh ESE 11.6 mph18.7 kmh 30.00 in1015.9 mb 0.00 in0.0 mm 0.00 in0.0 mm 0.00 in0.0 mm
03:15 PM 66.0°F18.9°C 43.4°F6.3°C 44% 2.0 mph E3.2 kmh E 7.6 mph12.2 kmh 30.00 in1015.9 mb 0.00 in0.0 mm 0.00 in0.0 mm 0.00 in0.0 mm
03:10 PM 66.2°F19.0°C 43.6°F6.4°C 44% 6.5 mph ESE10.5 kmh ESE 7.6 mph12.2 kmh 30.00 in1015.9 mb 0.00 in0.0 mm 0.00 in0.0 mm 0.00 in0.0 mm
03:05 PM 66.0°F18.9°C 43.4°F6.3°C 44% Calm Calm 12.8 mph20.6 kmh 30.00 in1015.9 mb 0.00 in0.0 mm 0.00 in0.0 mm 0.00 in0.0 mm
03:00 PM 66.0°F18.9°C 44.0°F6.7°C 45% 1.3 mph SE2.1 kmh SE 12.8 mph20.6 kmh 30.00 in1015.9 mb 0.00 in0.0 mm 0.00 in0.0 mm 0.00 in0.0 mm
02:55 PM 66.0°F18.9°C 44.0°F6.7°C 45% Calm Calm 8.7 mph14.0 kmh 30.00 in1015.9 mb 0.00 in0.0 mm 0.00 in0.0 mm 0.00 in0.0 mm
02:50 PM 65.7°F18.7°C 44.2°F6.8°C 46% 5.1 mph ENE8.2 kmh ENE 17.2 mph27.7 kmh 30.01 in1016.3 mb 0.00 in0.0 mm 0.00 in0.0 mm 0.00 in0.0 mm
02:45 PM 65.5°F18.6°C 43.5°F6.4°C 45% 6.7 mph ENE10.8 kmh ENE 17.2 mph27.7 kmh 30.01 in1016.3 mb 0.00 in0.0 mm 0.00 in0.0 mm 0.00 in0.0 mm
02:40 PM 65.5°F18.6°C 44.0°F6.7°C 46% 3.8 mph ENE6.1 kmh ENE 14.8 mph23.8 kmh 30.01 in1016.3 mb 0.00 in0.0 mm 0.00 in0.0 mm 0.00 in0.0 mm
02:35 PM 65.3°F18.5°C 43.9°F6.6°C 46% Calm Calm 14.8 mph23.8 kmh 30.01 in1016.3 mb 0.00 in0.0 mm 0.00 in0.0 mm 0.00 in0.0 mm
02:30 PM 65.3°F18.5°C 43.9°F6.6°C 46% 8.7 mph NE14.0 kmh NE 13.6 mph21.9 kmh 30.01 in1016.3 mb 0.00 in0.0 mm 0.00 in0.0 mm 0.00 in0.0 mm
02:25 PM 65.5°F18.6°C 43.5°F6.4°C 45% 8.5 mph E13.7 kmh E 17.2 mph27.7 kmh 30.01 in1016.3 mb 0.00 in0.0 mm 0.00 in0.0 mm 0.00 in0.0 mm
02:20 PM 65.7°F18.7°C 44.2°F6.8°C 46% 4.5 mph E7.2 kmh E 17.2 mph27.7 kmh 30.01 in1016.3 mb 0.00 in0.0 mm 0.00 in0.0 mm 0.00 in0.0 mm
02:15 PM 66.0°F18.9°C 45.8°F7.7°C 48% 2.2 mph SE3.5 kmh SE 10.5 mph16.9 kmh 30.02 in1016.6 mb 0.00 in0.0 mm 0.00 in0.0 mm 0.00 in0.0 mm
02:10 PM 65.5°F18.6°C 45.2°F7.3°C 48% 5.8 mph SE9.3 kmh SE 10.5 mph16.9 kmh 30.02 in1016.6 mb 0.00 in0.0 mm 0.00 in0.0 mm 0.00 in0.0 mm
02:05 PM 65.5°F18.6°C 45.2°F7.3°C 48% 2.9 mph SE4.7 kmh SE 8.5 mph13.7 kmh 30.02 in1016.6 mb 0.00 in0.0 mm 0.00 in0.0 mm 0.00 in0.0 mm
02:00 PM 65.5°F18.6°C 45.2°F7.3°C 48% 3.1 mph SSE5.0 kmh SSE 8.9 mph14.3 kmh 30.02 in1016.6 mb 0.00 in0.0 mm 0.00 in0.0 mm 0.00 in0.0 mm
01:55 PM 65.1°F18.4°C 45.4°F7.4°C 49% 7.2 mph SSE11.6 kmh SSE 9.4 mph15.1 kmh 30.02 in1016.6 mb 0.00 in0.0 mm 0.00 in0.0 mm 0.00 in0.0 mm
01:50 PM 64.8°F18.2°C 45.1°F7.3°C 49% 2.5 mph E4.0 kmh E 9.4 mph15.1 kmh 30.02 in1016.6 mb 0.00 in0.0 mm 0.00 in0.0 mm 0.00 in0.0 mm
01:45 PM 64.6°F18.1°C 45.5°F7.5°C 50% 5.8 mph E9.3 kmh E 10.3 mph16.6 kmh 30.02 in1016.6 mb 0.00 in0.0 mm 0.00 in0.0 mm 0.00 in0.0 mm
01:40 PM 64.6°F18.1°C 45.5°F7.5°C 50% 6.3 mph ESE10.1 kmh ESE 12.1 mph19.5 kmh 30.02 in1016.6 mb 0.00 in0.0 mm 0.00 in0.0 mm 0.00 in0.0 mm
01:35 PM 64.2°F17.9°C 44.6°F7.0°C 49% 2.0 mph E3.2 kmh E 15.0 mph24.1 kmh 30.02 in1016.6 mb 0.00 in0.0 mm 0.00 in0.0 mm 0.00 in0.0 mm
01:30 PM 64.2°F17.9°C 44.6°F7.0°C 49% 2.7 mph ESE4.3 kmh ESE 15.0 mph24.1 kmh 30.02 in1016.6 mb 0.00 in0.0 mm 0.00 in0.0 mm 0.00 in0.0 mm
01:25 PM 64.8°F18.2°C 45.1°F7.3°C 49% 5.4 mph SSE8.7 kmh SSE 11.6 mph18.7 kmh 30.02 in1016.6 mb 0.00 in0.0 mm 0.00 in0.0 mm 0.00 in0.0 mm
01:20 PM 64.9°F18.3°C 45.3°F7.4°C 49% 5.6 mph SSE9.0 kmh SSE 8.9 mph14.3 kmh 30.02 in1016.6 mb 0.00 in0.0 mm 0.00 in0.0 mm 0.00 in0.0 mm
01:15 PM 64.8°F18.2°C 45.1°F7.3°C 49% 4.3 mph SSE6.9 kmh SSE 8.3 mph13.4 kmh 30.03 in1016.9 mb 0.00 in0.0 mm 0.00 in0.0 mm 0.00 in0.0 mm
01:10 PM 64.6°F18.1°C 44.9°F7.2°C 49% 1.3 mph SSE2.1 kmh SSE 8.9 mph14.3 kmh 30.03 in1016.9 mb 0.00 in0.0 mm 0.00 in0.0 mm 0.00 in0.0 mm
01:05 PM 64.6°F18.1°C 44.9°F7.2°C 49% 6.5 mph S10.5 kmh S 12.5 mph20.1 kmh 30.04 in1017.3 mb 0.00 in0.0 mm 0.00 in0.0 mm 0.00 in0.0 mm
01:00 PM 64.2°F17.9°C 44.6°F7.0°C 49% 3.8 mph S6.1 kmh S 12.5 mph20.1 kmh 30.04 in1017.3 mb 0.00 in0.0 mm 0.00 in0.0 mm 0.00 in0.0 mm
12:55 PM 64.4°F18.0°C 45.3°F7.4°C 50% 2.9 mph SE4.7 kmh SE 6.3 mph10.1 kmh 30.04 in1017.3 mb 0.00 in0.0 mm 0.00 in0.0 mm 0.00 in0.0 mm
12:50 PM 64.4°F18.0°C 45.3°F7.4°C 50% 1.1 mph SE1.8 kmh SE 7.6 mph12.2 kmh 30.04 in1017.3 mb 0.00 in0.0 mm 0.00 in0.0 mm 0.00 in0.0 mm
12:45 PM 64.0°F17.8°C 45.2°F7.3°C 51% 5.4 mph E8.7 kmh E 8.7 mph14.0 kmh 30.05 in1017.6 mb 0.00 in0.0 mm 0.00 in0.0 mm 0.00 in0.0 mm
12:40 PM 63.1°F17.3°C 44.7°F7.1°C 51% Calm Calm 8.7 mph14.0 kmh 30.05 in1017.6 mb 0.00 in0.0 mm 0.00 in0.0 mm 0.00 in0.0 mm
12:35 PM 63.0°F17.2°C 45.0°F7.2°C 52% Calm Calm 9.4 mph15.1 kmh 30.05 in1017.6 mb 0.00 in0.0 mm 0.00 in0.0 mm 0.00 in0.0 mm
12:30 PM 62.8°F17.1°C 45.3°F7.4°C 53% 3.6 mph S5.8 kmh S 9.4 mph15.1 kmh 30.04 in1017.3 mb 0.00 in0.0 mm 0.00 in0.0 mm 0.00 in0.0 mm
12:25 PM 61.9°F16.6°C 46.0°F7.8°C 56% 2.9 mph SSW4.7 kmh SSW 8.7 mph14.0 kmh 30.05 in1017.6 mb 0.00 in0.0 mm 0.00 in0.0 mm 0.00 in0.0 mm
12:20 PM 61.2°F16.2°C 47.7°F8.7°C 61% Calm Calm 13.4 mph21.6 kmh 30.05 in1017.6 mb 0.00 in0.0 mm 0.00 in0.0 mm 0.00 in0.0 mm
12:15 PM 60.6°F15.9°C 47.2°F8.4°C 61% 2.5 mph SSW4.0 kmh SSW 13.4 mph21.6 kmh 30.05 in1017.6 mb 0.00 in0.0 mm 0.00 in0.0 mm 0.00 in0.0 mm
12:10 PM 61.0°F16.1°C 47.5°F8.6°C 61% 3.8 mph SSW6.1 kmh SSW 13.4 mph21.6 kmh 30.05 in1017.6 mb 0.00 in0.0 mm 0.00 in0.0 mm 0.00 in0.0 mm
12:05 PM 62.8°F17.1°C 46.3°F7.9°C 55% 4.5 mph S7.2 kmh S 9.8 mph15.8 kmh 30.05 in1017.6 mb 0.00 in0.0 mm 0.00 in0.0 mm 0.00 in0.0 mm
12:00 PM 62.6°F17.0°C 45.0°F7.2°C 53% 1.6 mph E2.6 kmh E 4.5 mph7.2 kmh 30.05 in1017.6 mb 0.00 in0.0 mm 0.00 in0.0 mm 0.00 in0.0 mm
11:55 AM 62.4°F16.9°C 45.0°F7.2°C 53% 0.9 mph SE1.4 kmh SE 4.7 mph7.6 kmh 30.05 in1017.6 mb 0.00 in0.0 mm 0.00 in0.0 mm 0.00 in0.0 mm
11:50 AM 61.9°F16.6°C 44.5°F6.9°C 53% 1.6 mph SSW2.6 kmh SSW 6.7 mph10.8 kmh 30.05 in1017.6 mb 0.00 in0.0 mm 0.00 in0.0 mm 0.00 in0.0 mm
11:45 AM 61.9°F16.6°C 44.5°F6.9°C 53% 1.1 mph S1.8 kmh S 7.8 mph12.6 kmh 30.04 in1017.3 mb 0.00 in0.0 mm 0.00 in0.0 mm 0.00 in0.0 mm
11:40 AM 61.5°F16.4°C 44.2°F6.8°C 53% 2.5 mph S4.0 kmh S 7.8 mph12.6 kmh 30.04 in1017.3 mb 0.00 in0.0 mm 0.00 in0.0 mm 0.00 in0.0 mm
11:35 AM 61.3°F16.3°C 44.0°F6.7°C 53% 5.6 mph S9.0 kmh S 12.1 mph19.5 kmh 30.04 in1017.3 mb 0.00 in0.0 mm 0.00 in0.0 mm 0.00 in0.0 mm
11:30 AM 61.2°F16.2°C 43.4°F6.3°C 52% 6.0 mph S9.7 kmh S 12.1 mph19.5 kmh 30.04 in1017.3 mb 0.00 in0.0 mm 0.00 in0.0 mm 0.00 in0.0 mm
11:25 AM 60.8°F16.0°C 43.1°F6.2°C 52% Calm Calm 11.6 mph18.7 kmh 30.04 in1017.3 mb 0.00 in0.0 mm 0.00 in0.0 mm 0.00 in0.0 mm
11:20 AM 60.6°F15.9°C 42.9°F6.1°C 52% 4.7 mph SW7.6 kmh SW 11.6 mph18.7 kmh 30.04 in1017.3 mb 0.00 in0.0 mm 0.00 in0.0 mm 0.00 in0.0 mm
11:15 AM 60.4°F15.8°C 42.7°F5.9°C 52% 2.2 mph SW3.5 kmh SW 10.7 mph17.2 kmh 30.04 in1017.3 mb 0.00 in0.0 mm 0.00 in0.0 mm 0.00 in0.0 mm
11:10 AM 60.1°F15.6°C 42.9°F6.1°C 53% 1.1 mph SE1.8 kmh SE 8.9 mph14.3 kmh 30.04 in1017.3 mb 0.00 in0.0 mm 0.00 in0.0 mm 0.00 in0.0 mm
11:05 AM 59.7°F15.4°C 43.0°F6.1°C 54% 3.1 mph ESE5.0 kmh ESE 8.9 mph14.3 kmh 30.04 in1017.3 mb 0.00 in0.0 mm 0.00 in0.0 mm 0.00 in0.0 mm
11:00 AM 59.0°F15.0°C 42.3°F5.7°C 54% Calm Calm 11.9 mph19.2 kmh 30.04 in1017.3 mb 0.00 in0.0 mm 0.00 in0.0 mm 0.00 in0.0 mm
10:55 AM 58.6°F14.8°C 42.3°F5.7°C 56% Calm Calm 15.7 mph25.3 kmh 30.04 in1017.3 mb 0.00 in0.0 mm 0.00 in0.0 mm 0.00 in0.0 mm
10:50 AM 57.7°F14.3°C 42.1°F5.6°C 56% 2.5 mph S4.0 kmh S 18.8 mph30.3 kmh 30.04 in1017.3 mb 0.00 in0.0 mm 0.00 in0.0 mm 0.00 in0.0 mm
10:45 AM 57.0°F13.9°C 41.9°F5.5°C 57% 2.5 mph SSW4.0 kmh SSW 19.5 mph31.4 kmh 30.04 in1017.3 mb 0.00 in0.0 mm 0.00 in0.0 mm 0.00 in0.0 mm
10:40 AM 56.1°F13.4°C 42.0°F5.6°C 59% 14.5 mph SSW23.3 kmh SSW 19.5 mph31.4 kmh 30.04 in1017.3 mb 0.00 in0.0 mm 0.00 in0.0 mm 0.00 in0.0 mm
10:35 AM 54.9°F12.7°C 42.0°F5.6°C 62% 10.1 mph SSW16.3 kmh SSW 19.7 mph31.7 kmh 30.05 in1017.6 mb 0.00 in0.0 mm 0.00 in0.0 mm 0.00 in0.0 mm
10:30 AM 54.1°F12.3°C 43.0°F6.1°C 66% 10.7 mph SSW17.2 kmh SSW 19.9 mph32.0 kmh 30.05 in1017.6 mb 0.00 in0.0 mm 0.00 in0.0 mm 0.00 in0.0 mm
10:25 AM 53.4°F11.9°C 42.7°F5.9°C 67% 15.4 mph SSW24.8 kmh SSW 19.9 mph32.0 kmh 30.05 in1017.6 mb 0.00 in0.0 mm 0.00 in0.0 mm 0.00 in0.0 mm
10:20 AM 53.1°F11.7°C 42.8°F6.0°C 68% 15.7 mph SSW25.3 kmh SSW 19.0 mph30.6 kmh 30.05 in1017.6 mb 0.00 in0.0 mm 0.00 in0.0 mm 0.00 in0.0 mm
10:15 AM 53.2°F11.8°C 42.5°F5.8°C 67% 12.5 mph SSW20.1 kmh SSW 19.2 mph30.9 kmh 30.05 in1017.6 mb 0.00 in0.0 mm 0.00 in0.0 mm 0.00 in0.0 mm
10:10 AM 52.5°F11.4°C 41.9°F5.5°C 67% 11.6 mph SSW18.7 kmh SSW 20.6 mph33.2 kmh 30.06 in1017.9 mb 0.00 in0.0 mm 0.00 in0.0 mm 0.00 in0.0 mm
10:05 AM 52.2°F11.2°C 42.8°F6.0°C 70% 18.8 mph SSW30.3 kmh SSW 23.3 mph37.5 kmh 30.05 in1017.6 mb 0.00 in0.0 mm 0.00 in0.0 mm 0.00 in0.0 mm
10:00 AM 52.3°F11.3°C 42.1°F5.6°C 69% 15.2 mph SSW24.5 kmh SSW 23.3 mph37.5 kmh 30.05 in1017.6 mb 0.00 in0.0 mm 0.00 in0.0 mm 0.00 in0.0 mm
09:55 AM 51.8°F11.0°C 42.0°F5.6°C 69% 17.7 mph S28.5 kmh S 27.1 mph43.6 kmh 30.05 in1017.6 mb 0.00 in0.0 mm 0.00 in0.0 mm 0.00 in0.0 mm
09:50 AM 51.1°F10.6°C 41.7°F5.4°C 70% 16.6 mph S26.7 kmh S 33.8 mph54.4 kmh 30.05 in1017.6 mb 0.00 in0.0 mm 0.00 in0.0 mm 0.00 in0.0 mm
09:45 AM 50.7°F10.4°C 41.4°F5.2°C 70% 25.1 mph SSW40.4 kmh SSW 33.8 mph54.4 kmh 30.05 in1017.6 mb 0.00 in0.0 mm 0.00 in0.0 mm 0.00 in0.0 mm
09:40 AM 50.7°F10.4°C 41.7°F5.4°C 71% 18.8 mph S30.3 kmh S 31.8 mph51.2 kmh 30.04 in1017.3 mb 0.00 in0.0 mm 0.00 in0.0 mm 0.00 in0.0 mm
09:35 AM 50.5°F10.3°C 41.5°F5.3°C 71% 26.8 mph S43.1 kmh S 27.7 mph44.6 kmh 30.04 in1017.3 mb 0.00 in0.0 mm 0.00 in0.0 mm 0.00 in0.0 mm
09:30 AM 50.7°F10.4°C 41.7°F5.4°C 71% 22.8 mph SSW36.7 kmh SSW 27.7 mph44.6 kmh 30.04 in1017.3 mb 0.00 in0.0 mm 0.00 in0.0 mm 0.00 in0.0 mm
09:25 AM 50.7°F10.4°C 41.4°F5.2°C 70% 15.2 mph SSW24.5 kmh SSW 28.9 mph46.5 kmh 30.04 in1017.3 mb 0.00 in0.0 mm 0.00 in0.0 mm 0.00 in0.0 mm
09:20 AM 50.7°F10.4°C 41.4°F5.2°C 70% 21.5 mph SSW34.6 kmh SSW 29.3 mph47.2 kmh 30.04 in1017.3 mb 0.00 in0.0 mm 0.00 in0.0 mm 0.00 in0.0 mm
09:15 AM 51.1°F10.6°C 41.3°F5.2°C 69% 21.3 mph SSW34.3 kmh SSW 29.3 mph47.2 kmh 30.04 in1017.3 mb 0.00 in0.0 mm 0.00 in0.0 mm 0.00 in0.0 mm
09:10 AM 52.3°F11.3°C 40.1°F4.5°C 63% 11.2 mph SSW18.0 kmh SSW 23.7 mph38.1 kmh 30.04 in1017.3 mb 0.00 in0.0 mm 0.00 in0.0 mm 0.00 in0.0 mm
09:05 AM 52.7°F11.5°C 40.0°F4.4°C 62% 8.7 mph SSW14.0 kmh SSW 22.8 mph36.7 kmh 30.04 in1017.3 mb 0.00 in0.0 mm 0.00 in0.0 mm 0.00 in0.0 mm
09:00 AM 53.4°F11.9°C 38.5°F3.6°C 57% 9.6 mph SSW15.4 kmh SSW 24.2 mph38.9 kmh 30.04 in1017.3 mb 0.00 in0.0 mm 0.00 in0.0 mm 0.00 in0.0 mm
08:55 AM 53.6°F12.0°C 38.2°F3.4°C 56% 18.1 mph SSW29.1 kmh SSW 24.2 mph38.9 kmh 30.04 in1017.3 mb 0.00 in0.0 mm 0.00 in0.0 mm 0.00 in0.0 mm
08:50 AM 53.4°F11.9°C 37.6°F3.1°C 55% 6.0 mph SSW9.7 kmh SSW 21.9 mph35.2 kmh 30.04 in1017.3 mb 0.00 in0.0 mm 0.00 in0.0 mm 0.00 in0.0 mm
08:45 AM 54.3°F12.4°C 36.5°F2.5°C 51% 14.8 mph S23.8 kmh S 22.6 mph36.4 kmh 30.03 in1016.9 mb 0.00 in0.0 mm 0.00 in0.0 mm 0.00 in0.0 mm
08:40 AM 54.3°F12.4°C 36.1°F2.3°C 50% 18.1 mph SSW29.1 kmh SSW 26.6 mph42.8 kmh 30.03 in1016.9 mb 0.00 in0.0 mm 0.00 in0.0 mm 0.00 in0.0 mm
08:35 AM 54.3°F12.4°C 36.5°F2.5°C 51% 23.0 mph SSW37.0 kmh SSW 26.6 mph42.8 kmh 30.02 in1016.6 mb 0.00 in0.0 mm 0.00 in0.0 mm 0.00 in0.0 mm
08:30 AM 54.3°F12.4°C 36.1°F2.3°C 50% 17.4 mph SSW28.0 kmh SSW 23.5 mph37.8 kmh 30.02 in1016.6 mb 0.00 in0.0 mm 0.00 in0.0 mm 0.00 in0.0 mm
08:25 AM 54.0°F12.2°C 36.2°F2.3°C 51% 11.9 mph SSW19.2 kmh SSW 22.8 mph36.7 kmh 30.03 in1016.9 mb 0.00 in0.0 mm 0.00 in0.0 mm 0.00 in0.0 mm
08:20 AM 53.4°F11.9°C 36.6°F2.6°C 53% 14.3 mph SSW23.0 kmh SSW 22.6 mph36.4 kmh 30.03 in1016.9 mb 0.00 in0.0 mm 0.00 in0.0 mm 0.00 in0.0 mm
08:15 AM 53.2°F11.8°C 37.0°F2.8°C 54% 15.7 mph SSW25.3 kmh SSW 23.0 mph37.0 kmh 30.03 in1016.9 mb 0.00 in0.0 mm 0.00 in0.0 mm 0.00 in0.0 mm
08:10 AM 52.9°F11.6°C 37.5°F3.1°C 56% 15.9 mph S25.6 kmh S 30.6 mph49.2 kmh 30.03 in1016.9 mb 0.00 in0.0 mm 0.00 in0.0 mm 0.00 in0.0 mm
08:05 AM 52.0°F11.1°C 37.1°F2.8°C 57% 22.6 mph SSW36.4 kmh SSW 30.6 mph49.2 kmh 30.03 in1016.9 mb 0.00 in0.0 mm 0.00 in0.0 mm 0.00 in0.0 mm
08:00 AM 51.6°F10.9°C 37.7°F3.2°C 59% 18.8 mph SSW30.3 kmh SSW 27.3 mph43.9 kmh 30.03 in1016.9 mb 0.00 in0.0 mm 0.00 in0.0 mm 0.00 in0.0 mm
07:55 AM 51.6°F10.9°C 37.2°F2.9°C 58% 21.7 mph SSW34.9 kmh SSW 27.3 mph43.9 kmh 30.03 in1016.9 mb 0.00 in0.0 mm 0.00 in0.0 mm 0.00 in0.0 mm
07:50 AM 51.1°F10.6°C 37.7°F3.2°C 60% 17.9 mph SSW28.8 kmh SSW 24.6 mph39.6 kmh 30.03 in1016.9 mb 0.00 in0.0 mm 0.00 in0.0 mm 0.00 in0.0 mm
07:45 AM 50.7°F10.4°C 37.3°F2.9°C 60% 15.4 mph SSW24.8 kmh SSW 18.8 mph30.3 kmh 30.04 in1017.3 mb 0.00 in0.0 mm 0.00 in0.0 mm 0.00 in0.0 mm
07:40 AM 50.4°F10.2°C 37.4°F3.0°C 61% 4.9 mph SSW7.9 kmh SSW 20.8 mph33.5 kmh 30.04 in1017.3 mb 0.00 in0.0 mm 0.00 in0.0 mm 0.00 in0.0 mm
07:35 AM 50.2°F10.1°C 37.2°F2.9°C 61% 8.5 mph SSW13.7 kmh SSW 24.8 mph39.9 kmh 30.03 in1016.9 mb 0.00 in0.0 mm 0.00 in0.0 mm 0.00 in0.0 mm
07:30 AM 50.2°F10.1°C 37.6°F3.1°C 62% 16.6 mph SSW26.7 kmh SSW 25.1 mph40.4 kmh 30.03 in1016.9 mb 0.00 in0.0 mm 0.00 in0.0 mm 0.00 in0.0 mm
07:25 AM 51.4°F10.8°C 37.2°F2.9°C 58% 18.3 mph SSW29.5 kmh SSW 25.1 mph40.4 kmh 30.03 in1016.9 mb 0.00 in0.0 mm 0.00 in0.0 mm 0.00 in0.0 mm
07:20 AM 53.2°F11.8°C 36.5°F2.5°C 53% 19.9 mph SSW32.0 kmh SSW 20.6 mph33.2 kmh 30.03 in1016.9 mb 0.00 in0.0 mm 0.00 in0.0 mm 0.00 in0.0 mm
07:15 AM 53.2°F11.8°C 35.5°F1.9°C 51% 7.8 mph SSW12.6 kmh SSW 22.8 mph36.7 kmh 30.03 in1016.9 mb 0.00 in0.0 mm 0.00 in0.0 mm 0.00 in0.0 mm
07:10 AM 53.2°F11.8°C 35.5°F1.9°C 51% 22.8 mph SSW36.7 kmh SSW 23.3 mph37.5 kmh 30.03 in1016.9 mb 0.00 in0.0 mm 0.00 in0.0 mm 0.00 in0.0 mm
07:05 AM 53.2°F11.8°C 35.5°F1.9°C 51% 8.5 mph SSW13.7 kmh SSW 23.3 mph37.5 kmh 30.03 in1016.9 mb 0.00 in0.0 mm 0.00 in0.0 mm 0.00 in0.0 mm
07:00 AM 52.9°F11.6°C 35.7°F2.1°C 52% 13.9 mph SSW22.4 kmh SSW 19.5 mph31.4 kmh 30.03 in1016.9 mb 0.00 in0.0 mm 0.00 in0.0 mm 0.00 in0.0 mm
06:55 AM 52.3°F11.3°C 35.6°F2.0°C 53% 13.0 mph SSW20.9 kmh SSW 19.9 mph32.0 kmh 30.03 in1016.9 mb 0.00 in0.0 mm 0.00 in0.0 mm 0.00 in0.0 mm
06:50 AM 51.6°F10.9°C 35.9°F2.2°C 55% 3.8 mph SSW6.1 kmh SSW 21.3 mph34.3 kmh 30.03 in1016.9 mb 0.00 in0.0 mm 0.00 in0.0 mm 0.00 in0.0 mm
06:45 AM 50.9°F10.5°C 36.1°F2.3°C 57% 15.4 mph SSW24.8 kmh SSW 21.3 mph34.3 kmh 30.03 in1016.9 mb 0.00 in0.0 mm 0.00 in0.0 mm 0.00 in0.0 mm
06:40 AM 49.5°F9.7°C 36.6°F2.6°C 61% 11.9 mph SSW19.2 kmh SSW 20.1 mph32.3 kmh 30.03 in1016.9 mb 0.00 in0.0 mm 0.00 in0.0 mm 0.00 in0.0 mm
06:35 AM 48.4°F9.1°C 37.5°F3.1°C 66% 12.5 mph SSW20.1 kmh SSW 21.3 mph34.3 kmh 30.03 in1016.9 mb 0.00 in0.0 mm 0.00 in0.0 mm 0.00 in0.0 mm
06:30 AM 46.9°F8.3°C 38.0°F3.3°C 71% 9.6 mph SSW15.4 kmh SSW 25.7 mph41.4 kmh 30.04 in1017.3 mb 0.00 in0.0 mm 0.00 in0.0 mm 0.00 in0.0 mm
06:25 AM 46.0°F7.8°C 38.6°F3.7°C 75% 15.4 mph SSW24.8 kmh SSW 29.5 mph47.5 kmh 30.04 in1017.3 mb 0.00 in0.0 mm 0.00 in0.0 mm 0.00 in0.0 mm
06:20 AM 45.0°F7.2°C 38.5°F3.6°C 78% 25.7 mph S41.4 kmh S 34.2 mph55.0 kmh 30.04 in1017.3 mb 0.00 in0.0 mm 0.00 in0.0 mm 0.00 in0.0 mm
06:15 AM 44.8°F7.1°C 39.3°F4.1°C 81% 29.5 mph S47.5 kmh S 34.2 mph55.0 kmh 30.04 in1017.3 mb 0.00 in0.0 mm 0.00 in0.0 mm 0.00 in0.0 mm
06:10 AM 45.3°F7.4°C 39.2°F4.0°C 79% 31.5 mph SSW50.7 kmh SSW 33.1 mph53.3 kmh 30.04 in1017.3 mb 0.00 in0.0 mm 0.00 in0.0 mm 0.00 in0.0 mm
06:05 AM 46.2°F7.9°C 38.4°F3.6°C 74% 24.6 mph S39.6 kmh S 31.8 mph51.2 kmh 30.04 in1017.3 mb 0.00 in0.0 mm 0.00 in0.0 mm 0.00 in0.0 mm
06:00 AM 46.9°F8.3°C 38.4°F3.6°C 72% 22.1 mph S35.6 kmh S 34.4 mph55.4 kmh 30.04 in1017.3 mb 0.00 in0.0 mm 0.00 in0.0 mm 0.00 in0.0 mm
05:55 AM 48.0°F8.9°C 37.5°F3.1°C 67% 25.9 mph S41.7 kmh S 35.6 mph57.3 kmh 30.04 in1017.3 mb 0.00 in0.0 mm 0.00 in0.0 mm 0.00 in0.0 mm
05:50 AM 47.7°F8.7°C 37.6°F3.1°C 68% 21.9 mph SSW35.2 kmh SSW 36.7 mph59.1 kmh 30.04 in1017.3 mb 0.00 in0.0 mm 0.00 in0.0 mm 0.00 in0.0 mm
05:45 AM 48.0°F8.9°C 37.5°F3.1°C 67% 27.1 mph S43.6 kmh S 36.7 mph59.1 kmh 30.04 in1017.3 mb 0.00 in0.0 mm 0.00 in0.0 mm 0.00 in0.0 mm
05:40 AM 47.1°F8.4°C 37.5°F3.1°C 69% 25.7 mph S41.4 kmh S 35.6 mph57.3 kmh 30.04 in1017.3 mb 0.00 in0.0 mm 0.00 in0.0 mm 0.00 in0.0 mm
05:35 AM 46.6°F8.1°C 37.4°F3.0°C 70% 27.3 mph S43.9 kmh S 35.6 mph57.3 kmh 30.04 in1017.3 mb 0.00 in0.0 mm 0.00 in0.0 mm 0.00 in0.0 mm
05:30 AM 46.6°F8.1°C 38.4°F3.6°C 73% 20.8 mph S33.5 kmh S 34.2 mph55.0 kmh 30.04 in1017.3 mb 0.00 in0.0 mm 0.00 in0.0 mm 0.00 in0.0 mm
05:25 AM 46.9°F8.3°C 37.3°F2.9°C 69% 27.1 mph SSW43.6 kmh SSW 32.7 mph52.6 kmh 30.03 in1016.9 mb 0.00 in0.0 mm 0.00 in0.0 mm 0.00 in0.0 mm
05:20 AM 48.6°F9.2°C 36.5°F2.5°C 63% 17.4 mph SSW28.0 kmh SSW 30.0 mph48.3 kmh 30.04 in1017.3 mb 0.00 in0.0 mm 0.00 in0.0 mm 0.00 in0.0 mm
05:15 AM 48.9°F9.4°C 36.5°F2.5°C 63% 19.5 mph SSW31.4 kmh SSW 30.0 mph48.3 kmh 30.04 in1017.3 mb 0.00 in0.0 mm 0.00 in0.0 mm 0.00 in0.0 mm
05:10 AM 48.9°F9.4°C 36.9°F2.7°C 63% 22.1 mph SSW35.6 kmh SSW 29.8 mph48.0 kmh 30.04 in1017.3 mb 0.00 in0.0 mm 0.00 in0.0 mm 0.00 in0.0 mm
05:05 AM 48.9°F9.4°C 36.5°F2.5°C 62% 19.0 mph SSW30.6 kmh SSW 29.8 mph48.0 kmh 30.04 in1017.3 mb 0.00 in0.0 mm 0.00 in0.0 mm 0.00 in0.0 mm
05:00 AM 48.4°F9.1°C 37.1°F2.8°C 65% 10.7 mph SSW17.2 kmh SSW 26.6 mph42.8 kmh 30.04 in1017.3 mb 0.00 in0.0 mm 0.00 in0.0 mm 0.00 in0.0 mm
04:55 AM 48.7°F9.3°C 36.3°F2.4°C 62% 15.7 mph SSW25.3 kmh SSW 26.6 mph42.8 kmh 30.04 in1017.3 mb 0.00 in0.0 mm 0.00 in0.0 mm 0.00 in0.0 mm
04:50 AM 50.0°F10.0°C 37.5°F3.1°C 62% 25.1 mph S40.4 kmh S 27.7 mph44.6 kmh 30.04 in1017.3 mb 0.00 in0.0 mm 0.00 in0.0 mm 0.00 in0.0 mm
04:45 AM 50.7°F10.4°C 35.5°F1.9°C 56% 13.2 mph SSW21.2 kmh SSW 27.7 mph44.6 kmh 30.04 in1017.3 mb 0.00 in0.0 mm 0.00 in0.0 mm 0.00 in0.0 mm
04:40 AM 51.6°F10.9°C 35.9°F2.2°C 55% 12.5 mph SSW20.1 kmh SSW 21.0 mph33.8 kmh 30.04 in1017.3 mb 0.00 in0.0 mm 0.00 in0.0 mm 0.00 in0.0 mm
04:35 AM 52.2°F11.2°C 35.0°F1.7°C 52% 15.4 mph SSW24.8 kmh SSW 21.0 mph33.8 kmh 30.04 in1017.3 mb 0.00 in0.0 mm 0.00 in0.0 mm 0.00 in0.0 mm
04:30 AM 52.3°F11.3°C 34.7°F1.5°C 51% 13.6 mph SSW21.9 kmh SSW 19.5 mph31.4 kmh 30.05 in1017.6 mb 0.00 in0.0 mm 0.00 in0.0 mm 0.00 in0.0 mm
04:25 AM 52.3°F11.3°C 34.3°F1.3°C 50% 15.0 mph SSW24.1 kmh SSW 18.6 mph29.9 kmh 30.05 in1017.6 mb 0.00 in0.0 mm 0.00 in0.0 mm 0.00 in0.0 mm
04:20 AM 52.0°F11.1°C 34.4°F1.3°C 51% 6.0 mph SSW9.7 kmh SSW 18.8 mph30.3 kmh 30.05 in1017.6 mb 0.00 in0.0 mm 0.00 in0.0 mm 0.00 in0.0 mm
04:15 AM 51.6°F10.9°C 34.5°F1.4°C 52% 13.6 mph SSW21.9 kmh SSW 19.7 mph31.7 kmh 30.05 in1017.6 mb 0.00 in0.0 mm 0.00 in0.0 mm 0.00 in0.0 mm
04:10 AM 50.7°F10.4°C 34.6°F1.4°C 54% 14.3 mph SSW23.0 kmh SSW 20.6 mph33.2 kmh 30.05 in1017.6 mb 0.00 in0.0 mm 0.00 in0.0 mm 0.00 in0.0 mm
04:05 AM 49.6°F9.8°C 35.9°F2.2°C 59% 5.1 mph SSW8.2 kmh SSW 20.6 mph33.2 kmh 30.05 in1017.6 mb 0.00 in0.0 mm 0.00 in0.0 mm 0.00 in0.0 mm
04:00 AM 48.2°F9.0°C 37.0°F2.8°C 65% 14.5 mph S23.3 kmh S 30.9 mph49.7 kmh 30.05 in1017.6 mb 0.00 in0.0 mm 0.00 in0.0 mm 0.00 in0.0 mm
03:55 AM 47.3°F8.5°C 37.3°F2.9°C 68% 23.7 mph S38.1 kmh S 30.0 mph48.3 kmh 30.05 in1017.6 mb 0.00 in0.0 mm 0.00 in0.0 mm 0.00 in0.0 mm
03:50 AM 46.9°F8.3°C 38.4°F3.6°C 71% 21.7 mph S34.9 kmh S 29.5 mph47.5 kmh 30.06 in1017.9 mb 0.00 in0.0 mm 0.00 in0.0 mm 0.00 in0.0 mm
03:45 AM 47.5°F8.6°C 38.2°F3.4°C 70% 28.4 mph S45.7 kmh S 29.5 mph47.5 kmh 30.06 in1017.9 mb 0.00 in0.0 mm 0.00 in0.0 mm 0.00 in0.0 mm
03:40 AM 48.9°F9.4°C 37.6°F3.1°C 65% 14.5 mph SSW23.3 kmh SSW 31.5 mph50.7 kmh 30.06 in1017.9 mb 0.00 in0.0 mm 0.00 in0.0 mm 0.00 in0.0 mm
03:35 AM 49.1°F9.5°C 37.0°F2.8°C 63% 16.8 mph SSW27.0 kmh SSW 31.5 mph50.7 kmh 30.06 in1017.9 mb 0.00 in0.0 mm 0.00 in0.0 mm 0.00 in0.0 mm
03:30 AM 49.3°F9.6°C 37.6°F3.1°C 64% 17.7 mph S28.5 kmh S 33.8 mph54.4 kmh 30.06 in1017.9 mb 0.00 in0.0 mm 0.00 in0.0 mm 0.00 in0.0 mm
03:25 AM 49.1°F9.5°C 37.0°F2.8°C 63% 24.6 mph SSW39.6 kmh SSW 38.0 mph61.2 kmh 30.06 in1017.9 mb 0.00 in0.0 mm 0.00 in0.0 mm 0.00 in0.0 mm
03:20 AM 48.7°F9.3°C 37.1°F2.8°C 64% 18.8 mph S30.3 kmh S 38.5 mph62.0 kmh 30.06 in1017.9 mb 0.00 in0.0 mm 0.00 in0.0 mm 0.00 in0.0 mm
03:15 AM 49.1°F9.5°C 37.4°F3.0°C 64% 22.4 mph S36.0 kmh S 38.5 mph62.0 kmh 30.06 in1017.9 mb 0.00 in0.0 mm 0.00 in0.0 mm 0.00 in0.0 mm
03:10 AM 49.3°F9.6°C 37.2°F2.9°C 63% 30.6 mph SSW49.2 kmh SSW 33.8 mph54.4 kmh 30.07 in1018.3 mb 0.00 in0.0 mm 0.00 in0.0 mm 0.00 in0.0 mm
03:05 AM 49.3°F9.6°C 37.2°F2.9°C 63% 33.1 mph SSW53.3 kmh SSW 33.1 mph53.3 kmh 30.06 in1017.9 mb 0.00 in0.0 mm 0.00 in0.0 mm 0.00 in0.0 mm
03:00 AM 49.6°F9.8°C 36.7°F2.6°C 61% 19.2 mph S30.9 kmh S 43.4 mph69.8 kmh 30.06 in1017.9 mb 0.00 in0.0 mm 0.00 in0.0 mm 0.00 in0.0 mm
02:55 AM 49.3°F9.6°C 36.4°F2.4°C 61% 33.1 mph S53.3 kmh S 43.4 mph69.8 kmh 30.06 in1017.9 mb 0.00 in0.0 mm 0.00 in0.0 mm 0.00 in0.0 mm
02:50 AM 49.3°F9.6°C 37.2°F2.9°C 63% 22.8 mph S36.7 kmh S 43.4 mph69.8 kmh 30.07 in1018.3 mb 0.00 in0.0 mm 0.00 in0.0 mm 0.00 in0.0 mm
02:45 AM 48.7°F9.3°C 37.1°F2.8°C 64% 25.3 mph SSW40.7 kmh SSW 39.8 mph64.1 kmh 30.07 in1018.3 mb 0.00 in0.0 mm 0.00 in0.0 mm 0.00 in0.0 mm
02:40 AM 48.7°F9.3°C 37.5°F3.1°C 65% 33.1 mph SSW53.3 kmh SSW 38.3 mph61.6 kmh 30.07 in1018.3 mb 0.00 in0.0 mm 0.00 in0.0 mm 0.00 in0.0 mm
02:35 AM 50.2°F10.1°C 36.8°F2.7°C 60% 28.2 mph SSW45.4 kmh SSW 33.3 mph53.6 kmh 30.07 in1018.3 mb 0.00 in0.0 mm 0.00 in0.0 mm 0.00 in0.0 mm
02:30 AM 50.2°F10.1°C 36.4°F2.4°C 59% 25.7 mph S41.4 kmh S 36.7 mph59.1 kmh 30.08 in1018.6 mb 0.00 in0.0 mm 0.00 in0.0 mm 0.00 in0.0 mm
02:25 AM 49.8°F9.9°C 36.0°F2.2°C 59% 27.5 mph S44.3 kmh S 37.4 mph60.2 kmh 30.08 in1018.6 mb 0.00 in0.0 mm 0.00 in0.0 mm 0.00 in0.0 mm
02:20 AM 49.6°F9.8°C 36.4°F2.4°C 60% 25.7 mph S41.4 kmh S 37.4 mph60.2 kmh 30.08 in1018.6 mb 0.00 in0.0 mm 0.00 in0.0 mm 0.00 in0.0 mm
02:15 AM 49.1°F9.5°C 37.0°F2.8°C 63% 19.9 mph S32.0 kmh S 36.0 mph57.9 kmh 30.08 in1018.6 mb 0.00 in0.0 mm 0.00 in0.0 mm 0.00 in0.0 mm
02:10 AM 50.5°F10.3°C 36.7°F2.6°C 59% 34.7 mph S55.8 kmh S 34.7 mph55.8 kmh 30.08 in1018.6 mb 0.00 in0.0 mm 0.00 in0.0 mm 0.00 in0.0 mm
02:05 AM 51.1°F10.6°C 35.9°F2.2°C 56% 20.1 mph S32.3 kmh S 31.5 mph50.7 kmh 30.09 in1019.0 mb 0.00 in0.0 mm 0.00 in0.0 mm 0.00 in0.0 mm
02:00 AM 50.9°F10.5°C 35.2°F1.8°C 55% 16.6 mph S26.7 kmh S 28.0 mph45.1 kmh 30.09 in1019.0 mb 0.00 in0.0 mm 0.00 in0.0 mm 0.00 in0.0 mm
01:55 AM 50.5°F10.3°C 35.8°F2.1°C 57% 12.3 mph SSW19.8 kmh SSW 29.8 mph48.0 kmh 30.10 in1019.3 mb 0.00 in0.0 mm 0.00 in0.0 mm 0.00 in0.0 mm
01:50 AM 50.7°F10.4°C 36.0°F2.2°C 57% 20.8 mph SSW33.5 kmh SSW 29.8 mph48.0 kmh 30.09 in1019.0 mb 0.00 in0.0 mm 0.00 in0.0 mm 0.00 in0.0 mm
01:45 AM 50.7°F10.4°C 36.0°F2.2°C 57% 20.6 mph SSW33.2 kmh SSW 29.5 mph47.5 kmh 30.10 in1019.3 mb 0.00 in0.0 mm 0.00 in0.0 mm 0.00 in0.0 mm
01:40 AM 50.7°F10.4°C 36.4°F2.4°C 58% 22.4 mph SSW36.0 kmh SSW 26.4 mph42.5 kmh 30.10 in1019.3 mb 0.00 in0.0 mm 0.00 in0.0 mm 0.00 in0.0 mm
01:35 AM 50.5°F10.3°C 36.3°F2.4°C 58% 15.7 mph SSW25.3 kmh SSW 28.0 mph45.1 kmh 30.10 in1019.3 mb 0.00 in0.0 mm 0.00 in0.0 mm 0.00 in0.0 mm
01:30 AM 50.2°F10.1°C 36.8°F2.7°C 60% 19.9 mph S32.0 kmh S 28.0 mph45.1 kmh 30.11 in1019.6 mb 0.00 in0.0 mm 0.00 in0.0 mm 0.00 in0.0 mm
01:25 AM 50.2°F10.1°C 36.8°F2.7°C 60% 18.3 mph SSW29.5 kmh SSW 24.6 mph39.6 kmh 30.11 in1019.6 mb 0.00 in0.0 mm 0.00 in0.0 mm 0.00 in0.0 mm
01:20 AM 50.2°F10.1°C 36.8°F2.7°C 60% 13.4 mph SSW21.6 kmh SSW 24.6 mph39.6 kmh 30.11 in1019.6 mb 0.00 in0.0 mm 0.00 in0.0 mm 0.00 in0.0 mm
01:15 AM 49.8°F9.9°C 36.9°F2.7°C 61% 10.5 mph SSW16.9 kmh SSW 21.3 mph34.3 kmh 30.11 in1019.6 mb 0.00 in0.0 mm 0.00 in0.0 mm 0.00 in0.0 mm
01:10 AM 49.3°F9.6°C 37.6°F3.1°C 64% 16.8 mph SSW27.0 kmh SSW 22.6 mph36.4 kmh 30.11 in1019.6 mb 0.00 in0.0 mm 0.00 in0.0 mm 0.00 in0.0 mm
01:05 AM 48.9°F9.4°C 38.0°F3.3°C 66% 11.0 mph SSW17.7 kmh SSW 22.6 mph36.4 kmh 30.11 in1019.6 mb 0.00 in0.0 mm 0.00 in0.0 mm 0.00 in0.0 mm
01:00 AM 47.1°F8.4°C 38.6°F3.7°C 72% 16.8 mph SSW27.0 kmh SSW 24.8 mph39.9 kmh 30.11 in1019.6 mb 0.00 in0.0 mm 0.00 in0.0 mm 0.00 in0.0 mm
12:55 AM 46.0°F7.8°C 40.3°F4.6°C 80% 16.3 mph SSW26.2 kmh SSW 24.8 mph39.9 kmh 30.12 in1020.0 mb 0.00 in0.0 mm 0.00 in0.0 mm 0.00 in0.0 mm
12:50 AM 46.0°F7.8°C 40.9°F4.9°C 82% 19.9 mph SSW32.0 kmh SSW 24.6 mph39.6 kmh 30.12 in1020.0 mb 0.00 in0.0 mm 0.00 in0.0 mm 0.00 in0.0 mm
12:45 AM 46.0°F7.8°C 40.9°F4.9°C 82% 13.9 mph SSW22.4 kmh SSW 22.6 mph36.4 kmh 30.12 in1020.0 mb 0.00 in0.0 mm 0.00 in0.0 mm 0.00 in0.0 mm
12:40 AM 46.2°F7.9°C 41.1°F5.1°C 82% 19.9 mph SSW32.0 kmh SSW 22.1 mph35.6 kmh 30.12 in1020.0 mb 0.00 in0.0 mm 0.00 in0.0 mm 0.00 in0.0 mm
12:35 AM 46.0°F7.8°C 40.6°F4.8°C 81% 9.6 mph SSW15.4 kmh SSW 19.0 mph30.6 kmh 30.12 in1020.0 mb 0.00 in0.0 mm 0.00 in0.0 mm 0.00 in0.0 mm
12:30 AM 46.2°F7.9°C 40.8°F4.9°C 81% 10.3 mph SSW16.6 kmh SSW 19.0 mph30.6 kmh 30.13 in1020.3 mb 0.00 in0.0 mm 0.00 in0.0 mm 0.00 in0.0 mm
12:25 AM 46.8°F8.2°C 41.0°F5.0°C 80% 19.0 mph SSW30.6 kmh SSW 21.9 mph35.2 kmh 30.13 in1020.3 mb 0.00 in0.0 mm 0.00 in0.0 mm 0.00 in0.0 mm
12:20 AM 47.3°F8.5°C 40.4°F4.7°C 77% 8.9 mph SSW14.3 kmh SSW 21.9 mph35.2 kmh 30.13 in1020.3 mb 0.00 in0.0 mm 0.00 in0.0 mm 0.00 in0.0 mm
12:15 AM 48.7°F9.3°C 40.1°F4.5°C 72% 16.3 mph S26.2 kmh S 19.2 mph30.9 kmh 30.13 in1020.3 mb 0.00 in0.0 mm 0.00 in0.0 mm 0.00 in0.0 mm
12:10 AM 49.6°F9.8°C 37.9°F3.3°C 64% 11.4 mph S18.3 kmh S 18.6 mph29.9 kmh 30.14 in1020.7 mb 0.00 in0.0 mm 0.00 in0.0 mm 0.00 in0.0 mm
12:05 AM 50.5°F10.3°C 37.6°F3.1°C 61% 10.5 mph SSW16.9 kmh SSW 18.6 mph29.9 kmh 30.14 in1020.7 mb 0.00 in0.0 mm 0.00 in0.0 mm 0.00 in0.0 mm
12:00 AM 51.4°F10.8°C 36.6°F2.6°C 57% 12.1 mph SSW19.5 kmh SSW 15.9 mph25.6 kmh 30.13 in1020.3 mb 0.00 in0.0 mm 0.00 in0.0 mm 0.00 in0.0 mm